Data for 06/13/2016

Time Sea-Level Adjusted Pressure Absolute Pressure Temperature Relative Humidity Dew Point   
(mb) (inHg) (mb) (inHg) (C) (F) (%) (C) (F)
00:05 1021 30.15 850 25.1 10.6 51 51 0.9 33.6
00:10 1021 30.15 850 25.1 10.5 50.9 51 0.7 33.3
00:15 1021 30.15 850 25.1 10.6 51 50 0.5 33
00:20 1021 30.15 850 25.1 10.6 51.1 49 0.3 32.6
00:25 1021 30.15 850 25.1 10.8 51.4 47 0 32.1
00:30 1021 30.15 850 25.1 11 51.7 48 0.3 32.6
00:35 1021 30.15 850 25.1 10.7 51.3 48 0.2 32.3
00:40 1021 30.15 850 25.1 10.7 51.2 48 0.1 32.1
00:45 1021 30.15 850 25.1 10.7 51.3 48 0.1 32.1
00:50 1021 30.15 850 25.1 10.5 51 48 -0 32
00:55 1021 30.15 850 25.1 10.2 50.4 49 0.1 32.2
01:00 1021 30.15 850 25.1 10 50 49 -0.2 31.7
01:05 1021 30.15 850 25.1 10.1 50.2 47 -0.5 31.1
01:10 1021 30.15 850 25.1 10.4 50.6 47 -0.4 31.4
01:15 1021 30.15 850 25.1 10.5 50.8 47 -0.3 31.4
01:20 1021 30.15 850 25.1 10.6 51 47 -0.4 31.4
01:25 1021 30.15 850 25.1 10.6 51.2 46 -0.4 31.2
01:30 1021 30.15 850 25.1 10.7 51.2 47 -0.1 31.8
01:35 1021 30.15 850 25.1 10.6 51.1 46 -0.5 31.1
01:40 1021 30.15 850 25.1 10.6 51 47 -0.4 31.4
01:45 1021 30.15 850 25.1 10.3 50.6 49 0 32
01:50 1021 30.15 850 25.1 10.2 50.3 48 -0.2 31.7
01:55 1021 30.15 850 25.1 10.2 50.3 48 -0.3 31.5
02:00 1021 30.15 850 25.1 10.3 50.6 47 -0.4 31.3
02:05 1021 30.15 850 25.1 10.5 50.9 46 -0.6 30.9
02:10 1021 30.15 850 25.1 11 51.7 42 -1.4 29.5
02:15 1021 30.15 850 25.1 11.4 52.4 41 -1.3 29.7
02:20 1020 30.12 850 25.1 11.2 52.2 43 -0.8 30.6
02:25 1020 30.12 850 25.1 11 51.7 44 -0.6 30.8
02:30 1020 30.12 849 25.07 10.9 51.6 45 -0.4 31.2
02:35 1020 30.12 849 25.07 10.5 50.9 49 0.2 32.3
02:40 1020 30.12 849 25.07 10.1 50.1 51 0.3 32.6
02:45 1020 30.12 849 25.07 9.8 49.6 51 0.2 32.4
02:50 1020 30.12 849 25.07 9.8 49.6 51 0.2 32.4
02:55 1020 30.12 849 25.07 9.8 49.6 51 0.1 32.1
03:00 1020 30.12 849 25.07 9.8 49.7 52 0.5 32.8
03:05 1020 30.12 849 25.07 9.7 49.4 51 -0 31.9
03:10 1020 30.12 849 25.07 9.9 49.9 51 0.3 32.6
03:15 1020 30.12 849 25.07 9.9 49.8 51 0.4 32.6
03:20 1020 30.12 849 25.07 9.8 49.7 50 -0.2 31.7
03:25 1020 30.12 849 25.07 10.2 50.4 47 -0.4 31.2
03:30 1020 30.12 849 25.07 10.6 51 47 -0.3 31.5
03:35 1020 30.12 849 25.07 10.7 51.2 48 0.1 32.2
03:40 1020 30.12 849 25.07 10.6 51.1 49 0.4 32.7
03:45 1020 30.12 849 25.07 10.4 50.7 51 0.7 33.3
03:50 1020 30.12 849 25.07 10.2 50.4 52 0.8 33.4
03:55 1020 30.12 849 25.07 10.2 50.4 52 0.9 33.6
04:00 1020 30.12 849 25.07 10.1 50.1 54 1.1 34
04:05 1020 30.12 849 25.07 9.9 49.8 53 0.9 33.7
04:10 1020 30.12 849 25.07 10.3 50.5 50 0.3 32.6
04:15 1020 30.12 849 25.07 10.4 50.8 49 0.3 32.5
04:20 1020 30.12 849 25.07 10.8 51.4 47 0 32
04:25 1020 30.12 849 25.07 10.6 51.1 53 1.5 34.7
04:30 1020 30.12 849 25.07 10 49.9 56 1.6 35
04:35 1020 30.12 849 25.07 9.7 49.5 55 1.1 34
04:40 1020 30.12 849 25.07 9.7 49.5 54 0.9 33.7
04:45 1020 30.12 849 25.07 10 49.9 53 0.9 33.7
04:50 1020 30.12 849 25.07 9.9 49.8 59 2.4 36.3
04:55 1020 30.12 849 25.07 9.5 49.2 58 1.7 35
05:00 1020 30.12 849 25.07 9.8 49.6 55 1.2 34.1
05:05 1020 30.12 849 25.07 10.5 50.9 50 0.7 33.3
05:10 1020 30.12 849 25.07 11 51.7 52 1.4 34.5
05:15 1020 30.12 849 25.07 10.8 51.4 52 1.5 34.6
05:20 1020 30.12 849 25.07 11 51.7 49 0.7 33.3
05:25 1020 30.12 849 25.07 11.3 52.4 49 0.9 33.7
05:30 1020 30.12 849 25.07 11.8 53.3 49 1.4 34.5
05:35 1020 30.12 849 25.07 12.2 53.9 50 2.3 36.1
05:40 1020 30.12 849 25.07 11.6 52.9 53 2.5 36.5
05:45 1020 30.12 849 25.07 11 51.7 54 2 35.6
05:50 1020 30.12 849 25.07 10.8 51.5 52 1.5 34.6
05:55 1020 30.12 849 25.07 11 51.8 53 1.8 35.2
06:00 1020 30.12 849 25.07 11.2 52.1 52 1.7 35.1
06:05 1020 30.12 849 25.07 11.1 52.1 50 1.1 34.1
06:10 1020 30.12 849 25.07 11.2 52.2 50 1.3 34.4
06:15 1020 30.12 849 25.07 11.4 52.6 52 2 35.7
06:20 1020 30.12 849 25.07 11.4 52.6 53 2.2 35.9
06:25 1020 30.12 849 25.07 11.3 52.3 57 3.1 37.5
06:30 1020 30.12 849 25.07 11 51.8 57 2.8 37.1
06:35 1020 30.12 849 25.07 11.3 52.3 54 2.3 36.2
06:40 1020 30.12 849 25.07 11.8 53.2 56 3.3 38
06:45 1020 30.12 849 25.07 12 53.5 56 3.5 38.4
06:50 1020 30.12 849 25.07 12.6 54.7 52 3 37.3
06:55 1020 30.12 849 25.07 13.4 56.2 48 2.8 37.1
07:00 1020 30.12 849 25.07 14 57.1 46 2.5 36.5
07:05 1020 30.12 849 25.07 14.4 57.8 45 2.6 36.7
07:10 1020 30.12 849 25.07 14.5 58.1 42 1.9 35.5
07:15 1020 30.12 849 25.07 14.5 58.1 42 1.9 35.4
07:20 1020 30.12 849 25.07 14.9 58.9 41 2 35.5
07:25 1020 30.12 849 25.07 15.2 59.3 41 2 35.6
07:30 1019 30.09 849 25.07 16.1 61 38 1.9 35.5
07:35 1019 30.09 849 25.07 16.5 61.8 37 1.8 35.2
07:40 1019 30.09 849 25.07 16.2 61.1 36 1.2 34.2
07:45 1019 30.09 849 25.07 16.1 60.9 36 1 33.8
07:50 1019 30.09 849 25.07 16.2 61.1 34 0.6 33
07:55 1019 30.09 848 25.04 15.8 60.4 36 0.7 33.2
08:00 1019 30.09 848 25.04 16.1 60.9 36 1.2 34.2
08:05 1019 30.09 848 25.04 16.8 62.3 34 0.8 33.5
08:10 1019 30.09 848 25.04 16.7 62.1 35 1.4 34.6
08:15 1019 30.09 848 25.04 17 62.5 35 1.6 34.8
08:20 1019 30.09 848 25.04 17 62.6 33 0.8 33.4
08:25 1019 30.09 848 25.04 17.2 63 32 0.7 33.2
08:30 1019 30.09 848 25.04 16.7 62.1 32 -0.1 31.9
08:35 1019 30.09 848 25.04 15.9 60.7 34 -0 32
08:40 1019 30.09 848 25.04 15.7 60.3 36 0.8 33.5
08:45 1019 30.09 848 25.04 15.9 60.6 36 0.9 33.7
08:50 1019 30.09 848 25.04 16 60.7 34 0.4 32.6
08:55 1019 30.09 848 25.04 15.9 60.5 34 0.2 32.3
09:00 1019 30.09 848 25.04 16.3 61.3 37 1.6 34.9
09:05 1019 30.09 848 25.04 16.4 61.6 38 2.2 36
09:10 1019 30.09 848 25.04 16.4 61.6 34 0.5 32.9
09:15 1019 30.09 848 25.04 17 62.5 34 1.1 34
09:20 1019 30.09 848 25.04 16.8 62.2 35 1.2 34.2
09:25 1019 30.09 848 25.04 16.6 61.8 34 0.7 33.3
09:30 1018 30.06 848 25.04 17.2 62.9 35 1.7 35.1
09:35 1019 30.09 848 25.04 17.4 63.2 35 1.9 35.3
09:40 1019 30.09 848 25.04 17.3 63.1 36 2 35.6
09:45 1018 30.06 848 25.04 16.7 62 36 1.7 35.1
09:50 1018 30.06 848 25.04 16.5 61.8 38 2.3 36.1
09:55 1018 30.06 848 25.04 16.6 61.9 36 1.6 34.8
10:00 1018 30.06 848 25.04 17 62.5 36 2 35.5
10:05 1018 30.06 847 25.01 17.4 63.4 35 1.9 35.4
10:10 1018 30.06 847 25.01 17.1 62.8 34 1.1 34
10:15 1018 30.06 847 25.01 16.8 62.2 35 1.2 34.2
10:20 1018 30.06 847 25.01 17.3 63.1 35 1.8 35.2
10:25 1018 30.06 847 25.01 17.1 62.8 37 2.5 36.5
10:30 1018 30.06 847 25.01 16.7 62 38 2.6 36.6
10:35 1019 30.09 848 25.04 16.2 61.2 40 2.6 36.7
10:40 1019 30.09 848 25.04 15.9 60.7 47 4.6 40.3
10:45 1019 30.09 848 25.04 15.7 60.3 51 5.6 42.1
10:50 1019 30.09 848 25.04 15.6 60.1 51 5.6 42.1
10:55 1019 30.09 848 25.04 15.7 60.2 47 4.6 40.2
11:00 1019 30.09 848 25.04 15.9 60.6 48 5 41
11:05 1018 30.06 848 25.04 16 60.8 48 5.2 41.3
11:10 1018 30.06 848 25.04 16.6 61.8 43 4.2 39.5
11:15 1018 30.06 848 25.04 16.5 61.7 40 2.9 37.2
11:20 1018 30.06 847 25.01 15.9 60.6 45 4.2 39.5
11:25 1018 30.06 847 25.01 16.2 61.1 40 2.8 37.1
11:30 1018 30.06 847 25.01 15.8 60.4 45 4 39.2
11:35 1018 30.06 847 25.01 15.4 59.7 45 3.7 38.7
11:40 1018 30.06 847 25.01 16.2 61.1 45 4.3 39.8
11:45 1018 30.06 847 25.01 16.7 62.1 43 4.3 39.8
11:50 1018 30.06 847 25.01 16.9 62.4 48 5.9 42.6
11:55 1018 30.06 847 25.01 17 62.6 42 4 39.2
12:00 1018 30.06 847 25.01 17.3 63.1 41 4.1 39.4
12:05 1018 30.06 847 25.01 17.5 63.5 39 3.6 38.5
12:10 1018 30.06 847 25.01 17.3 63.2 39 3.6 38.4
12:15 1018 30.06 847 25.01 17 62.6 38 2.8 37.1
12:20 1017 30.03 847 25.01 16.7 62.1 40 3.1 37.5
12:25 1017 30.03 846 24.98 17.1 62.8 39 3 37.4
12:30 1017 30.03 846 24.98 17 62.7 39 3.2 37.8
12:35 1017 30.03 846 24.98 16.9 62.4 38 2.6 36.7
12:40 1017 30.03 846 24.98 17.9 64.1 35 2.5 36.5
12:45 1017 30.03 846 24.98 18.5 65.3 35 3.1 37.5
12:50 1017 30.03 846 24.98 19.7 67.4 32 2.7 36.8
12:55 1017 30.03 846 24.98 19.8 67.6 32 2.7 36.9
13:00 1016 30 846 24.98 20.5 68.9 32 3.5 38.3
13:05 1016 30 846 24.98 19.8 67.6 36 4.2 39.6
13:10 1016 30 846 24.98 19.3 66.8 36 3.9 39
13:15 1016 30 845 24.95 19.6 67.2 35 3.9 39.1
13:20 1016 30 845 24.95 19.7 67.4 35 4 39.1
13:25 1016 30 846 24.98 20.1 68.2 34 3.9 39.1
13:30 1016 30 846 24.98 19.8 67.6 37 4.9 40.8
13:35 1016 30 846 24.98 19.1 66.5 39 4.9 40.8
13:40 1017 30.03 846 24.98 18.9 66 39 4.6 40.3
13:45 1017 30.03 846 24.98 18.5 65.3 40 4.9 40.7
13:50 1017 30.03 846 24.98 18.2 64.7 43 5.6 42.2
13:55 1017 30.03 846 24.98 16.9 62.4 49 6.1 43
14:00 1017 30.03 846 24.98 16 60.8 61 8.6 47.5
14:05 1017 30.03 847 25.01 14.8 58.6 71 9.5 49.2
14:10 1017 30.03 847 25.01 13.4 56.2 73 8.7 47.7
14:15 1017 30.03 846 24.98 12.8 55 76 8.7 47.7
14:20 1017 30.03 846 24.98 12.5 54.4 78 8.8 47.9
14:25 1017 30.03 846 24.98 12.1 53.7 82 9 48.2
14:30 1016 30 846 24.98 12 53.5 80 8.6 47.5
14:35 1016 30 846 24.98 11.9 53.5 80 8.7 47.6
14:40 1016 30 845 24.95 12.1 53.7 80 8.8 47.9
14:45 1016 30 845 24.95 12.2 54 80 8.9 48
14:50 1016 30 845 24.95 12.4 54.3 81 9.2 48.6
14:55 1016 30 845 24.95 12.4 54.3 77 8.4 47.2
15:00 1016 30 845 24.95 12.7 54.9 75 8.5 47.2
15:05 1016 30 845 24.95 13.4 56 74 8.9 48.1
15:10 1015 29.97 845 24.95 13.8 56.8 71 8.7 47.7
15:15 1015 29.97 844 24.92 14.1 57.3 73 9.4 48.9
15:20 1015 29.97 844 24.92 14.7 58.5 70 9.3 48.8
15:25 1015 29.97 844 24.92 15.3 59.6 65 8.9 47.9
15:30 1015 29.97 844 24.92 15.9 60.7 60 8.4 47
15:35 1015 29.97 844 24.92 16.5 61.7 57 7.9 46.3
15:40 1015 29.97 844 24.92 17.1 62.7 54 7.9 46.1
15:45 1015 29.97 844 24.92 17.5 63.4 53 7.9 46.3
15:50 1015 29.97 844 24.92 17.8 64 50 7.3 45.2
15:55 1014 29.94 844 24.92 18.5 65.3 46 6.7 44
16:00 1014 29.94 844 24.92 18.7 65.6 45 6.6 43.8
16:05 1014 29.94 844 24.92 19 66.2 43 6.4 43.5
16:10 1014 29.94 843 24.89 19.2 66.6 43 6.3 43.4
16:15 1014 29.94 843 24.89 19.6 67.3 42 6.6 43.8
16:20 1014 29.94 843 24.89 20 67.9 42 6.9 44.5
16:25 1014 29.94 843 24.89 20.3 68.6 42 7.3 45.1
16:30 1014 29.94 843 24.89 20.1 68.1 42 7.1 44.7
16:35 1014 29.94 843 24.89 20.8 69.5 41 7.2 45
16:40 1014 29.94 843 24.89 20.9 69.7 40 7.1 44.8
16:45 1014 29.94 843 24.89 20.6 69.1 41 7.1 44.7
16:50 1014 29.94 843 24.89 20.9 69.6 41 7.4 45.4
16:55 1014 29.94 843 24.89 21.1 69.9 40 7.1 44.8
17:00 1014 29.94 843 24.89 21.5 70.6 34 4.9 40.9
17:05 1013 29.91 843 24.89 21 69.8 33 4.1 39.4
17:10 1013 29.91 843 24.89 21.1 70 32 4 39.2
17:15 1013 29.91 843 24.89 21.5 70.8 32 4.2 39.6
17:20 1013 29.91 842 24.86 21.5 70.6 31 3.7 38.7
17:25 1013 29.91 842 24.86 21.2 70.2 31 3.6 38.5
17:30 1013 29.91 842 24.86 21 69.8 30 2.7 36.9
17:35 1013 29.91 842 24.86 21.3 70.3 29 2.9 37.3
17:40 1013 29.91 842 24.86 20.9 69.7 31 3.3 37.9
17:45 1013 29.91 842 24.86 20.9 69.7 32 4 39.1
17:50 1013 29.91 842 24.86 21.1 69.9 30 2.9 37.2
17:55 1013 29.91 842 24.86 21.2 70.1 27 1.7 35.1
18:00 1013 29.91 842 24.86 21.8 71.3 26 1.9 35.4
18:05 1013 29.91 842 24.86 22.1 71.8 28 2.9 37.3
18:10 1013 29.91 842 24.86 21.7 71.1 28 2.7 36.9
18:15 1013 29.91 842 24.86 21.4 70.5 28 2.1 35.7
18:20 1013 29.91 842 24.86 21.2 70.1 28 2.4 36.2
18:25 1013 29.91 842 24.86 21.3 70.4 28 2.3 36.1
18:30 1013 29.91 842 24.86 21.1 70 29 2.5 36.5
18:35 1013 29.91 842 24.86 20.9 69.6 27 1.3 34.4
18:40 1013 29.91 842 24.86 20.8 69.5 28 1.9 35.3
18:45 1013 29.91 842 24.86 20.7 69.2 28 1.7 35.1
18:50 1013 29.91 842 24.86 20.5 68.9 31 2.7 36.9
18:55 1013 29.91 842 24.86 20.2 68.4 31 2.7 36.8
19:00 1013 29.91 842 24.86 20.1 68.2 32 3 37.4
19:05 1013 29.91 842 24.86 20 67.9 33 3.4 38.1
19:10 1013 29.91 842 24.86 19.9 67.8 34 3.8 38.8
19:15 1013 29.91 842 24.86 19.9 67.7 33 3.5 38.2
19:20 1013 29.91 842 24.86 19.8 67.6 34 3.5 38.4
19:25 1013 29.91 842 24.86 19.7 67.5 32 2.9 37.3
19:30 1013 29.91 842 24.86 19.7 67.4 33 3.1 37.6
19:35 1013 29.91 842 24.86 19.5 67 38 4.9 40.7
19:40 1013 29.91 842 24.86 19 66.3 41 5.7 42.2
19:45 1013 29.91 842 24.86 18.7 65.6 41 5.2 41.4
19:50 1013 29.91 842 24.86 18.6 65.4 40 4.9 40.7
19:55 1012 29.88 842 24.86 18.3 65 43 5.6 42.1
20:00 1012 29.88 842 24.86 18 64.4 44 5.6 42.2
20:05 1012 29.88 842 24.86 17.7 63.9 46 6 42.8
20:10 1012 29.88 842 24.86 17.4 63.3 47 6.1 42.9
20:15 1012 29.88 841 24.83 17.2 62.9 47 6 42.7
20:20 1012 29.88 841 24.83 17.1 62.7 47 5.9 42.5
20:25 1012 29.88 842 24.86 17 62.7 47 5.9 42.5
20:30 1012 29.88 842 24.86 17 62.6 48 5.9 42.6
20:35 1012 29.88 841 24.83 16.9 62.3 49 6.2 43.2
20:40 1012 29.88 841 24.83 16.5 61.7 52 6.7 44
20:45 1012 29.88 841 24.83 16.2 61.2 53 6.8 44.2
20:50 1012 29.88 841 24.83 16.1 60.9 53 6.6 43.9
20:55 1012 29.88 841 24.83 16.1 61 52 6.3 43.3
21:00 1012 29.88 841 24.83 16.2 61.1 51 6.1 43.1
21:05 1012 29.88 842 24.86 16.1 61 50 5.9 42.6
21:10 1012 29.88 842 24.86 16.2 61.1 50 5.7 42.3
21:15 1012 29.88 842 24.86 16.1 61.1 50 5.7 42.3
21:20 1012 29.88 842 24.86 16 60.8 50 5.8 42.4
21:25 1012 29.88 842 24.86 15.9 60.6 51 5.9 42.6
21:30 1012 29.88 842 24.86 15.7 60.2 51 5.7 42.2
21:35 1012 29.88 842 24.86 15.7 60.3 52 5.8 42.5
21:40 1012 29.88 842 24.86 15.5 59.9 52 5.9 42.6
21:45 1012 29.88 842 24.86 15.4 59.7 52 5.6 42.1
21:50 1012 29.88 842 24.86 15.3 59.5 52 5.7 42.2
21:55 1012 29.88 842 24.86 15.5 59.9 48 4.7 40.5
22:00 1012 29.88 842 24.86 15.8 60.4 50 5.6 42
22:05 1012 29.88 841 24.83 15.4 59.8 50 5.1 41.2
22:10 1012 29.88 841 24.83 15.5 59.8 47 4.4 40
22:15 1012 29.88 841 24.83 15.7 60.2 47 4.3 39.8
22:20 1012 29.88 841 24.83 15.8 60.5 47 4.5 40.1
22:25 1012 29.88 841 24.83 15.7 60.3 46 4.2 39.6
22:30 1012 29.88 841 24.83 16 60.8 45 4 39.2
22:35 1012 29.88 841 24.83 16.1 61 43 3.8 38.8
22:40 1012 29.88 841 24.83 16.2 61.2 44 4.2 39.6
22:45 1012 29.88 841 24.83 16.1 61 44 4 39.3
22:50 1012 29.88 841 24.83 16.1 61 44 3.9 39
22:55 1012 29.88 841 24.83 16.2 61.2 42 3.4 38
23:00 1012 29.88 841 24.83 16.3 61.3 44 4 39.1
23:05 1012 29.88 841 24.83 15.9 60.5 45 4 39.3
23:10 1012 29.88 841 24.83 15.6 60.1 47 4.4 40
23:15 1012 29.88 841 24.83 15.3 59.6 47 4.2 39.5
23:20 1012 29.88 841 24.83 15.3 59.5 47 4.2 39.6
23:25 1012 29.88 841 24.83 15.1 59.2 48 4.3 39.7
23:30 1012 29.88 841 24.83 15 59 47 3.9 39.1
23:35 1012 29.88 841 24.83 15.1 59.2 48 4.1 39.5
23:40 1012 29.88 841 24.83 15 58.9 48 4.1 39.3
23:45 1012 29.88 841 24.83 15 59 48 4.2 39.5
23:50 1012 29.88 841 24.83 15 58.9 47 3.9 39
23:55 1012 29.88 841 24.83 15 59.1 47 3.8 38.8
24:00 1012 29.88 841 24.83 15 59 48 4.2 39.6